Time;durP1;ratioP1;P1;durP2;ratioP2;P2;SDS_P1;SDS_P2;PMS_P1;PMS_P2;Temp;Humidity;BMP_temperature;BMP_pressure;BME280_temperature;BME280_humidity;BME280_pressure;Samples;Min_cycle;Max_cycle;Signal;HPM_P1;HPM_P2
2021/09/16 00:01:50;;;;;;;15.70;11.75;;;18.40;99.90;;;;;;7403888;19;20022;-85
2021/09/16 00:04:19;;;;;;;24.17;11.27;;;18.40;99.90;;;;;;7405279;19;20016;-85
2021/09/16 00:06:52;;;;;;;19.17;11.38;;;18.50;99.90;;;;;;7405059;19;20021;-85
2021/09/16 00:09:23;;;;;;;18.83;10.95;;;18.40;99.90;;;;;;7406055;19;20023;-86
2021/09/16 00:11:53;;;;;;;18.88;11.13;;;18.40;99.90;;;;;;7407554;19;20015;-85
2021/09/16 00:14:24;;;;;;;18.80;12.18;;;18.40;99.90;;;;;;7407741;19;20018;-85
2021/09/16 00:16:55;;;;;;;17.17;12.27;;;18.40;99.90;;;;;;7404773;19;20021;-84
2021/09/16 00:19:25;;;;;;;17.65;10.60;;;18.50;99.90;;;;;;7404756;19;20015;-86
2021/09/16 00:21:58;;;;;;;23.65;11.25;;;18.50;99.90;;;;;;7403681;19;20011;-87
2021/09/16 00:24:28;;;;;;;16.13;10.82;;;18.40;99.90;;;;;;7403595;19;20026;-86
2021/09/16 00:27:12;;;;;;;17.08;11.15;;;18.40;99.90;;;;;;7402347;19;20010;-86
2021/09/16 00:29:41;;;;;;;16.25;11.13;;;18.40;99.90;;;;;;7402379;19;20014;-88
2021/09/16 00:32:11;;;;;;;16.27;11.80;;;18.40;99.90;;;;;;7400256;19;20025;-86
2021/09/16 00:34:41;;;;;;;19.13;11.93;;;18.50;99.90;;;;;;7401847;19;20025;-85
2021/09/16 00:37:13;;;;;;;17.30;12.98;;;18.40;99.90;;;;;;7403620;19;20014;-86
2021/09/16 00:39:47;;;;;;;22.42;13.32;;;18.50;99.90;;;;;;7404597;19;20456;-85
2021/09/16 00:42:18;;;;;;;21.48;12.80;;;18.50;99.90;;;;;;7403508;19;20025;-83
2021/09/16 00:44:47;;;;;;;24.65;13.00;;;18.50;99.90;;;;;;7405819;19;20022;-86
2021/09/16 00:47:18;;;;;;;24.70;13.98;;;18.50;99.90;;;;;;7405738;19;20006;-84
2021/09/16 00:49:49;;;;;;;21.35;13.57;;;18.50;99.90;;;;;;7403884;19;20014;-84
2021/09/16 00:52:23;;;;;;;20.55;13.18;;;18.50;99.90;;;;;;7403503;19;20011;-83
2021/09/16 00:54:55;;;;;;;19.88;11.80;;;18.50;99.90;;;;;;7403218;19;20429;-84
2021/09/16 00:57:26;;;;;;;20.15;11.90;;;18.50;99.90;;;;;;7402550;19;20424;-83
2021/09/16 00:59:57;;;;;;;22.20;13.38;;;18.50;99.90;;;;;;7401636;19;20082;-84
2021/09/16 01:02:26;;;;;;;19.77;13.32;;;18.50;99.90;;;;;;7406184;19;19999;-83
2021/09/16 01:04:56;;;;;;;21.27;13.63;;;18.50;99.90;;;;;;7405158;19;20014;-83
2021/09/16 01:07:30;;;;;;;24.38;13.85;;;18.60;99.90;;;;;;7399313;19;20049;-84
2021/09/16 01:10:01;;;;;;;20.40;12.70;;;18.60;99.90;;;;;;7404547;19;20048;-83
2021/09/16 01:12:31;;;;;;;22.42;14.65;;;18.60;99.90;;;;;;7402835;19;20427;-83
2021/09/16 01:15:03;;;;;;;19.95;12.65;;;18.60;99.90;;;;;;7410480;19;20017;-83
2021/09/16 01:17:35;;;;;;;22.58;13.73;;;18.50;99.90;;;;;;7413282;19;20448;-83
2021/09/16 01:20:06;;;;;;;22.17;13.15;;;18.60;99.90;;;;;;7404124;19;20002;-83
2021/09/16 01:22:38;;;;;;;24.10;13.98;;;18.60;99.90;;;;;;7400204;19;20011;-82
2021/09/16 01:25:08;;;;;;;24.60;14.27;;;18.60;99.90;;;;;;7399540;19;20524;-82
2021/09/16 01:27:38;;;;;;;21.45;13.45;;;18.50;99.90;;;;;;7398584;19;20014;-82
2021/09/16 01:30:10;;;;;;;25.58;13.23;;;18.40;99.90;;;;;;7401280;19;20018;-83
2021/09/16 01:32:40;;;;;;;29.52;15.15;;;18.40;99.90;;;;;;7399400;19;20033;-82
2021/09/16 01:35:10;;;;;;;31.50;15.05;;;18.40;99.90;;;;;;7398536;19;20328;-82
2021/09/16 01:37:42;;;;;;;31.52;16.50;;;18.40;99.90;;;;;;7399897;19;20018;-82
2021/09/16 01:40:26;;;;;;;31.35;14.95;;;18.40;99.90;;;;;;7401115;19;20019;-83
2021/09/16 01:42:56;;;;;;;30.23;16.33;;;18.40;99.90;;;;;;7400972;19;20026;-83
2021/09/16 01:45:28;;;;;;;31.17;16.33;;;18.30;99.90;;;;;;7398661;19;20014;-82
2021/09/16 01:47:58;;;;;;;32.90;15.43;;;18.30;99.90;;;;;;7398616;19;20021;-82
2021/09/16 01:50:29;;;;;;;35.67;16.70;;;18.30;99.90;;;;;;7400862;19;20014;-82
2021/09/16 01:53:01;;;;;;;31.27;16.35;;;18.30;99.90;;;;;;7400928;19;20436;-81
2021/09/16 01:55:30;;;;;;;30.38;15.38;;;18.20;99.90;;;;;;7399003;19;20011;-82
2021/09/16 01:58:00;;;;;;;31.58;15.15;;;18.20;99.90;;;;;;7398898;19;20411;-80
2021/09/16 02:00:29;;;;;;;37.53;17.83;;;18.10;99.90;;;;;;7400331;19;20015;-80
2021/09/16 02:03:01;;;;;;;41.80;18.17;;;18.20;99.90;;;;;;7400703;19;20082;-80
2021/09/16 02:05:32;;;;;;;46.33;19.02;;;18.10;99.90;;;;;;7398001;19;20440;-81
2021/09/16 02:08:07;;;;;;;37.63;17.95;;;18.00;99.90;;;;;;7397450;19;20014;-83
2021/09/16 02:10:37;;;;;;;37.38;17.67;;;18.10;99.90;;;;;;7400569;19;20019;-83
2021/09/16 02:13:06;;;;;;;48.08;21.10;;;18.10;99.90;;;;;;7399413;19;20047;-81
2021/09/16 02:15:36;;;;;;;57.45;21.05;;;18.10;99.90;;;;;;7397744;19;20025;-81
2021/09/16 02:18:05;;;;;;;38.90;20.77;;;18.10;99.90;;;;;;7399917;19;20416;-80
2021/09/16 02:20:37;;;;;;;39.42;20.08;;;18.20;99.90;;;;;;7403591;19;20082;-80
2021/09/16 02:23:09;;;;;;;62.35;24.42;;;18.20;99.90;;;;;;7399326;19;20022;-82
2021/09/16 02:25:38;;;;;;;47.78;23.10;;;18.20;99.90;;;;;;7398214;19;20018;-81
2021/09/16 02:28:08;;;;;;;53.65;24.85;;;18.10;99.90;;;;;;7397216;19;20014;-81
2021/09/16 02:30:37;;;;;;;54.50;25.48;;;18.10;99.90;;;;;;7399535;19;20013;-82
2021/09/16 02:33:09;;;;;;;58.70;25.33;;;18.20;99.90;;;;;;7396489;19;20094;-81
2021/09/16 02:35:39;;;;;;;53.83;25.83;;;18.00;99.90;;;;;;7397318;19;20317;-81
2021/09/16 02:38:11;;;;;;;63.60;25.48;;;18.00;99.90;;;;;;7397445;19;20070;-81
2021/09/16 02:40:41;;;;;;;68.30;26.88;;;17.90;99.90;;;;;;7398015;19;20014;-81
2021/09/16 02:43:10;;;;;;;80.78;27.95;;;17.80;99.90;;;;;;7397842;19;20434;-81
2021/09/16 02:45:40;;;;;;;66.05;29.85;;;17.80;99.90;;;;;;7411397;19;20021;-81
2021/09/16 02:48:09;;;;;;;77.03;27.75;;;17.80;99.90;;;;;;7411483;19;20014;-81
2021/09/16 02:50:41;;;;;;;75.43;28.35;;;17.80;99.90;;;;;;7417373;19;20531;-82
2021/09/16 02:53:13;;;;;;;63.53;28.63;;;17.70;99.90;;;;;;7414984;19;20099;-83
2021/09/16 02:55:44;;;;;;;75.65;29.60;;;17.80;99.90;;;;;;7410947;19;20460;-83
2021/09/16 02:58:14;;;;;;;93.57;33.25;;;17.70;99.90;;;;;;7411234;19;20022;-82
2021/09/16 03:00:43;;;;;;;75.78;31.48;;;17.70;99.90;;;;;;7412104;19;20006;-82
2021/09/16 03:03:13;;;;;;;92.80;33.60;;;17.60;99.90;;;;;;7410852;19;20443;-82
2021/09/16 03:05:42;;;;;;;91.97;34.03;;;17.70;99.90;;;;;;7412575;19;20043;-80
2021/09/16 03:08:14;;;;;;;87.68;32.03;;;17.60;99.90;;;;;;7409217;19;20325;-83
2021/09/16 03:10:43;;;;;;;84.95;35.10;;;17.60;99.90;;;;;;7409867;19;20025;-84
2021/09/16 03:13:15;;;;;;;88.75;33.58;;;17.60;99.90;;;;;;7407853;19;20018;-83
2021/09/16 03:15:44;;;;;;;95.03;33.13;;;17.70;99.90;;;;;;7411505;19;20020;-82
2021/09/16 03:18:14;;;;;;;94.47;36.53;;;17.60;99.90;;;;;;7411034;19;20010;-83
2021/09/16 03:20:43;;;;;;;95.38;33.85;;;17.60;99.90;;;;;;7413620;19;20120;-83
2021/09/16 03:23:15;;;;;;;102.75;34.17;;;17.60;99.90;;;;;;7411570;19;20343;-82
2021/09/16 03:25:45;;;;;;;95.15;32.67;;;17.50;99.90;;;;;;7411675;19;20010;-81
2021/09/16 03:28:15;;;;;;;90.55;34.25;;;17.50;99.90;;;;;;7408051;19;20017;-81
2021/09/16 03:30:44;;;;;;;115.95;36.67;;;17.60;99.90;;;;;;7410507;19;20010;-81
2021/09/16 03:33:14;;;;;;;113.47;34.30;;;17.50;99.90;;;;;;7410170;19;20428;-81
2021/09/16 03:35:43;;;;;;;98.80;34.67;;;17.50;99.90;;;;;;7411048;19;20030;-81
2021/09/16 03:38:15;;;;;;;95.35;33.33;;;17.50;99.90;;;;;;7409783;19;20022;-82
2021/09/16 03:40:47;;;;;;;99.72;36.08;;;17.60;99.90;;;;;;7410373;19;20007;-81
2021/09/16 03:43:16;;;;;;;133.70;37.90;;;17.60;99.90;;;;;;7408699;19;20082;-82
2021/09/16 03:45:45;;;;;;;83.43;33.47;;;17.60;99.90;;;;;;7411676;19;20018;-82
2021/09/16 03:48:17;;;;;;;85.25;34.78;;;17.60;99.90;;;;;;7407030;19;20030;-81
2021/09/16 03:50:46;;;;;;;90.47;34.00;;;17.50;99.90;;;;;;7409889;19;20014;-82
2021/09/16 03:53:21;;;;;;;86.65;35.42;;;17.50;99.90;;;;;;7410010;19;20447;-83
2021/09/16 03:55:50;;;;;;;77.70;34.00;;;17.60;99.90;;;;;;7403211;19;20018;-84
2021/09/16 03:58:22;;;;;;;95.15;35.72;;;17.50;99.90;;;;;;7402733;19;20018;-83
2021/09/16 04:00:52;;;;;;;75.30;33.58;;;17.50;99.90;;;;;;7403424;19;20026;-83
2021/09/16 04:03:21;;;;;;;73.85;31.45;;;17.50;99.90;;;;;;7400323;19;20015;-83
2021/09/16 04:05:51;;;;;;;86.40;33.28;;;17.50;99.90;;;;;;7400912;19;20044;-83
2021/09/16 04:08:24;;;;;;;83.40;34.70;;;17.40;99.90;;;;;;7400794;19;20521;-83
2021/09/16 04:10:53;;;;;;;86.75;33.50;;;17.40;99.90;;;;;;7402485;19;20018;-83
2021/09/16 04:13:25;;;;;;;80.82;34.05;;;17.50;99.90;;;;;;7403866;19;20033;-83
2021/09/16 04:15:54;;;;;;;82.57;34.00;;;17.40;99.90;;;;;;7405016;19;20018;-83
2021/09/16 04:18:26;;;;;;;73.63;32.33;;;17.40;99.90;;;;;;7402294;19;20007;-84
2021/09/16 04:20:56;;;;;;;81.15;32.03;;;17.40;99.90;;;;;;7403079;19;20026;-83
2021/09/16 04:23:28;;;;;;;72.45;32.10;;;17.50;99.90;;;;;;7405134;19;20015;-82
2021/09/16 04:25:57;;;;;;;71.00;32.70;;;17.40;99.90;;;;;;7406469;19;20082;-83
2021/09/16 04:28:26;;;;;;;68.15;31.08;;;17.40;99.90;;;;;;7401490;19;20090;-82
2021/09/16 04:30:58;;;;;;;69.25;32.13;;;17.40;99.90;;;;;;7399189;19;20019;-82
2021/09/16 04:33:29;;;;;;;72.82;32.50;;;17.50;99.90;;;;;;7400725;19;20018;-82
2021/09/16 04:35:59;;;;;;;69.50;32.28;;;17.40;99.90;;;;;;7402398;19;20014;-82
2021/09/16 04:38:31;;;;;;;66.20;31.13;;;17.30;99.90;;;;;;7401193;19;20014;-82
2021/09/16 04:41:00;;;;;;;69.20;31.10;;;17.30;99.90;;;;;;7402423;19;20026;-82
2021/09/16 04:43:30;;;;;;;73.93;31.45;;;17.30;99.90;;;;;;7400255;19;20003;-82
2021/09/16 04:46:07;;;;;;;71.10;31.45;;;17.30;99.90;;;;;;7402610;19;20451;-82
2021/09/16 04:48:38;;;;;;;61.28;29.83;;;17.30;99.90;;;;;;7399894;19;20034;-83
2021/09/16 04:51:10;;;;;;;67.18;27.55;;;17.30;99.90;;;;;;7400958;19;20025;-82
2021/09/16 04:53:41;;;;;;;48.08;24.10;;;17.30;99.90;;;;;;7399498;19;20429;-83
2021/09/16 04:56:11;;;;;;;42.15;20.42;;;17.20;99.90;;;;;;7415796;19;20011;-82
2021/09/16 04:58:45;;;;;;;32.08;15.02;;;17.10;99.90;;;;;;7400389;19;20014;-83
2021/09/16 05:01:16;;;;;;;27.75;15.27;;;17.00;99.90;;;;;;7405501;19;20010;-84
2021/09/16 05:03:46;;;;;;;26.17;14.35;;;16.90;99.90;;;;;;7411112;19;20014;-83
2021/09/16 05:06:15;;;;;;;35.38;16.27;;;16.80;99.90;;;;;;7406057;19;20010;-82
2021/09/16 05:08:52;;;;;;;37.45;18.10;;;16.70;99.90;;;;;;7398923;19;20026;-82
2021/09/16 05:11:22;;;;;;;43.80;20.65;;;16.80;99.90;;;;;;7401698;19;20014;-82
2021/09/16 05:13:55;;;;;;;44.83;20.63;;;16.80;99.90;;;;;;7402419;19;20469;-83
2021/09/16 05:16:25;;;;;;;50.97;22.15;;;16.90;99.90;;;;;;7401483;19;20026;-83
2021/09/16 05:18:57;;;;;;;45.70;21.27;;;16.90;99.90;;;;;;7399800;19;20010;-84
2021/09/16 05:21:27;;;;;;;56.35;21.17;;;16.90;99.90;;;;;;7400271;19;20025;-84
2021/09/16 05:23:59;;;;;;;59.60;22.85;;;16.90;99.90;;;;;;7402741;19;20029;-83
2021/09/16 05:26:33;;;;;;;52.47;20.52;;;16.90;99.90;;;;;;7411688;19;20058;-84
2021/09/16 05:29:08;;;;;;;52.38;20.45;;;16.90;99.90;;;;;;7416941;19;20010;-82
2021/09/16 05:31:38;;;;;;;43.72;20.00;;;17.00;99.90;;;;;;7406063;19;20011;-83
2021/09/16 05:34:07;;;;;;;40.58;18.38;;;17.10;99.90;;;;;;7401781;19;20007;-83
2021/09/16 05:36:37;;;;;;;43.88;21.92;;;17.00;99.90;;;;;;7401277;19;20122;-82
2021/09/16 05:39:09;;;;;;;35.58;17.40;;;17.00;99.90;;;;;;7401055;19;20013;-83
2021/09/16 05:41:41;;;;;;;32.40;15.50;;;17.00;99.90;;;;;;7400262;19;20018;-83
2021/09/16 05:44:14;;;;;;;33.72;15.30;;;17.00;99.90;;;;;;7400239;19;20019;-83
2021/09/16 05:46:44;;;;;;;30.83;15.15;;;17.00;99.90;;;;;;7397657;19;20082;-82
2021/09/16 05:49:13;;;;;;;30.00;14.20;;;17.00;99.90;;;;;;7398168;19;20081;-82
2021/09/16 05:51:42;;;;;;;31.63;14.80;;;16.90;99.90;;;;;;7398572;19;20003;-83
2021/09/16 05:54:14;;;;;;;28.92;14.43;;;17.00;99.90;;;;;;7399743;19;20098;-83
2021/09/16 05:56:45;;;;;;;27.20;14.25;;;17.00;99.90;;;;;;7399523;19;20022;-82
2021/09/16 05:59:18;;;;;;;25.55;13.40;;;17.00;99.90;;;;;;7396558;19;20010;-82
2021/09/16 06:01:48;;;;;;;31.40;14.32;;;16.90;99.90;;;;;;7397407;19;20329;-85
2021/09/16 06:04:18;;;;;;;26.13;12.75;;;17.00;99.90;;;;;;7399578;19;20018;-83
2021/09/16 06:06:47;;;;;;;28.63;15.30;;;17.00;99.90;;;;;;7397574;19;20021;-85
2021/09/16 06:09:20;;;;;;;29.27;14.82;;;17.00;99.90;;;;;;7397715;19;20014;-83
2021/09/16 06:11:50;;;;;;;26.60;14.68;;;17.00;99.90;;;;;;7399098;19;20034;-83
2021/09/16 06:14:19;;;;;;;34.30;17.73;;;17.00;99.90;;;;;;7396750;19;20010;-84
2021/09/16 06:16:50;;;;;;;23.27;14.05;;;17.10;99.90;;;;;;7399379;19;20007;-84
2021/09/16 06:19:19;;;;;;;28.00;16.58;;;17.00;99.90;;;;;;7395985;19;20048;-84
2021/09/16 06:21:49;;;;;;;26.92;15.57;;;17.00;99.90;;;;;;7397988;19;20089;-84
2021/09/16 06:24:21;;;;;;;25.73;15.40;;;17.10;99.90;;;;;;7403030;19;20015;-85
2021/09/16 06:26:51;;;;;;;26.38;14.95;;;17.10;99.90;;;;;;7408205;19;20018;-83
2021/09/16 06:29:22;;;;;;;28.77;14.75;;;17.00;99.90;;;;;;7406140;19;20015;-83
2021/09/16 06:31:52;;;;;;;28.85;15.32;;;16.90;99.90;;;;;;7420882;19;20380;-84
2021/09/16 06:34:21;;;;;;;31.67;16.55;;;17.00;99.90;;;;;;7416231;19;20021;-85
2021/09/16 06:36:51;;;;;;;29.00;15.77;;;17.00;99.90;;;;;;7405601;19;20014;-84
2021/09/16 06:39:27;;;;;;;30.52;15.88;;;17.00;99.90;;;;;;7412804;19;20011;-84
2021/09/16 06:41:57;;;;;;;26.05;15.40;;;17.00;99.90;;;;;;7400010;19;20043;-83
2021/09/16 06:44:28;;;;;;;35.58;16.65;;;17.20;99.90;;;;;;7402190;19;20078;-84
2021/09/16 06:46:57;;;;;;;27.88;16.13;;;17.30;99.90;;;;;;7398068;19;20048;-85
2021/09/16 06:49:28;;;;;;;23.55;15.07;;;17.40;99.90;;;;;;7397496;19;20018;-85
2021/09/16 06:51:58;;;;;;;23.05;14.73;;;17.40;99.90;;;;;;7399798;19;20014;-84
2021/09/16 06:54:30;;;;;;;26.13;14.48;;;17.30;99.90;;;;;;7395227;19;20319;-84
2021/09/16 06:57:00;;;;;;;24.05;14.30;;;17.20;99.90;;;;;;7397829;19;20019;-84
2021/09/16 06:59:31;;;;;;;21.17;13.68;;;17.20;99.90;;;;;;7400388;19;20118;-84
2021/09/16 07:02:00;;;;;;;23.88;13.73;;;17.20;99.90;;;;;;7401500;19;20013;-85
2021/09/16 07:04:30;;;;;;;28.40;13.82;;;17.10;99.90;;;;;;7404802;19;20025;-84
2021/09/16 07:07:06;;;;;;;23.30;13.73;;;17.10;99.90;;;;;;7399337;19;20040;-85
2021/09/16 07:09:43;;;;;;;21.70;13.30;;;17.20;99.90;;;;;;7400086;19;20010;-85
2021/09/16 07:12:12;;;;;;;20.35;12.75;;;17.30;99.90;;;;;;7397432;19;20017;-84
2021/09/16 07:14:43;;;;;;;24.17;12.20;;;17.40;99.90;;;;;;7397608;19;20017;-84
2021/09/16 07:17:13;;;;;;;21.75;12.20;;;17.50;99.90;;;;;;7399402;19;20099;-85
2021/09/16 07:19:42;;;;;;;18.60;12.35;;;17.50;99.90;;;;;;7399465;19;20006;-94
2021/09/16 07:22:12;;;;;;;21.67;12.23;;;17.60;99.90;;;;;;7395317;19;20010;-84
2021/09/16 07:24:44;;;;;;;21.80;11.50;;;17.60;99.90;;;;;;7399817;19;20372;-85
2021/09/16 07:27:14;;;;;;;18.42;11.52;;;17.60;99.90;;;;;;7399275;19;20007;-84
2021/09/16 07:29:46;;;;;;;17.92;12.00;;;17.50;99.90;;;;;;7401287;19;20410;-86
2021/09/16 07:32:16;;;;;;;18.20;11.15;;;17.40;99.90;;;;;;7407318;19;20011;-85
2021/09/16 07:34:45;;;;;;;19.70;10.05;;;17.20;99.90;;;;;;7413380;19;20019;-85
2021/09/16 07:37:15;;;;;;;16.55;9.23;;;17.40;99.90;;;;;;7424830;19;20010;-84
2021/09/16 07:39:48;;;;;;;19.58;9.40;;;17.50;99.90;;;;;;7411983;19;20037;-84
2021/09/16 07:42:18;;;;;;;18.75;8.00;;;17.50;99.90;;;;;;7406184;19;20067;-84
2021/09/16 07:44:47;;;;;;;15.02;8.60;;;17.40;99.90;;;;;;7406502;19;20066;-84
2021/09/16 07:47:17;;;;;;;11.50;8.13;;;17.50;99.90;;;;;;7405059;19;20046;-85
2021/09/16 07:49:47;;;;;;;10.32;7.43;;;17.50;99.90;;;;;;7403684;19;20019;-84
2021/09/16 07:52:18;;;;;;;15.27;7.63;;;17.60;99.90;;;;;;7406626;19;20014;-83
2021/09/16 07:54:51;;;;;;;12.57;7.20;;;17.50;99.90;;;;;;7407074;19;20018;-83
2021/09/16 07:57:28;;;;;;;15.30;7.85;;;17.60;99.90;;;;;;7406462;19;20015;-81
2021/09/16 07:59:58;;;;;;;13.43;8.15;;;17.70;99.90;;;;;;7405634;19;20022;-83
2021/09/16 08:02:28;;;;;;;15.30;7.68;;;17.80;99.90;;;;;;7405195;19;20018;-83
2021/09/16 08:04:57;;;;;;;15.00;8.90;;;17.70;99.90;;;;;;7405521;19;20081;-82
2021/09/16 08:07:26;;;;;;;15.50;7.28;;;17.90;99.90;;;;;;7402374;19;20032;-80
2021/09/16 08:09:58;;;;;;;11.73;7.45;;;18.30;99.90;;;;;;7405327;19;20014;-85
2021/09/16 08:12:28;;;;;;;13.80;7.78;;;18.30;99.90;;;;;;7406197;19;20009;-84
2021/09/16 08:14:57;;;;;;;13.13;8.02;;;18.10;99.90;;;;;;7401572;19;20013;-84
2021/09/16 08:17:27;;;;;;;13.27;8.63;;;18.10;99.90;;;;;;7405368;19;20053;-85
2021/09/16 08:19:56;;;;;;;14.57;7.32;;;18.10;99.90;;;;;;7406119;19;20019;-86
2021/09/16 08:22:25;;;;;;;10.32;6.47;;;18.30;99.90;;;;;;7403384;19;20007;-84
2021/09/16 08:24:57;;;;;;;14.93;6.30;;;18.50;99.90;;;;;;7405308;19;20010;-83
2021/09/16 08:27:29;;;;;;;11.63;6.05;;;18.90;99.90;;;;;;7402330;19;20019;-82
2021/09/16 08:29:58;;;;;;;8.73;5.47;;;19.20;99.90;;;;;;7402063;19;20018;-83
2021/09/16 08:32:28;;;;;;;13.50;6.95;;;19.50;99.90;;;;;;7403558;19;20095;-83
2021/09/16 08:34:58;;;;;;;15.00;4.60;;;19.80;99.90;;;;;;7404789;19;20006;-82
2021/09/16 08:37:28;;;;;;;7.78;4.28;;;20.20;99.90;;;;;;7400467;19;20279;-82
2021/09/16 08:40:00;;;;;;;12.85;5.28;;;20.50;99.90;;;;;;7402554;19;20018;-82
2021/09/16 08:42:30;;;;;;;8.95;4.10;;;20.40;99.90;;;;;;7403124;19;20014;-82
2021/09/16 08:45:00;;;;;;;7.57;3.75;;;20.00;99.90;;;;;;7405190;19;20006;-83
2021/09/16 08:47:30;;;;;;;9.50;4.43;;;19.70;99.90;;;;;;7412939;19;20022;-84
2021/09/16 08:50:00;;;;;;;8.73;3.85;;;19.50;99.90;;;;;;7402858;19;20020;-82
2021/09/16 08:52:29;;;;;;;9.23;3.60;;;19.40;99.90;;;;;;7402354;19;20014;-82
2021/09/16 08:55:02;;;;;;;7.82;3.63;;;19.30;99.90;;;;;;7400884;19;20018;-82
2021/09/16 08:57:32;;;;;;;10.73;3.75;;;19.20;99.90;;;;;;7406993;19;20025;-84
2021/09/16 09:00:02;;;;;;;7.38;3.42;;;19.20;99.90;;;;;;7401843;19;20015;-84
2021/09/16 09:02:34;;;;;;;7.95;3.88;;;19.20;99.90;;;;;;7402808;19;20014;-83
2021/09/16 09:05:05;;;;;;;6.35;2.78;;;19.40;99.90;;;;;;7402984;19;20089;-84
2021/09/16 09:07:42;;;;;;;8.20;3.00;;;19.50;99.90;;;;;;7401854;19;20026;-83
2021/09/16 09:10:37;;;;;;;8.05;3.08;;;19.70;99.90;;;;;;7401126;19;20034;-83
2021/09/16 09:13:08;;;;;;;10.93;3.90;;;19.80;99.90;;;;;;7402416;19;20014;-83
2021/09/16 09:15:40;;;;;;;5.32;2.97;;;19.70;99.90;;;;;;7401458;19;20020;-84
2021/09/16 09:18:12;;;;;;;10.85;3.15;;;19.70;99.90;;;;;;7404112;19;20050;-86
2021/09/16 09:21:04;;;;;;;6.90;3.00;;;19.60;99.90;;;;;;7407850;19;20015;-84
2021/09/16 09:23:39;;;;;;;8.68;4.03;;;19.50;99.90;;;;;;7417491;19;20431;-85
2021/09/16 09:26:26;;;;;;;6.32;3.10;;;19.40;99.90;;;;;;7406969;19;20015;-86
2021/09/16 09:28:59;;;;;;;6.53;3.08;;;19.30;99.90;;;;;;7404098;19;20011;-84
2021/09/16 09:31:29;;;;;;;4.90;2.75;;;19.20;99.90;;;;;;7400123;19;20010;-83
2021/09/16 09:34:26;;;;;;;8.70;4.28;;;19.10;99.90;;;;;;7401701;19;20420;-83
2021/09/16 09:37:11;;;;;;;10.02;3.85;;;19.20;99.90;;;;;;7401339;19;20018;-83
2021/09/16 09:39:42;;;;;;;9.55;3.38;;;19.20;99.90;;;;;;7399853;19;20018;-84
2021/09/16 09:42:28;;;;;;;7.20;3.38;;;19.40;99.90;;;;;;7399995;19;20022;-82
2021/09/16 09:45:08;;;;;;;8.93;3.40;;;19.80;99.90;;;;;;7401612;19;20085;-84
2021/09/16 09:47:40;;;;;;;5.78;2.72;;;20.20;99.90;;;;;;7400548;19;20048;-83
2021/09/16 09:50:19;;;;;;;9.13;2.78;;;21.00;99.90;;;;;;7404693;19;20025;-83
2021/09/16 09:52:49;;;;;;;5.65;2.40;;;22.20;99.90;;;;;;7401326;19;20026;-84
2021/09/16 09:55:21;;;;;;;6.43;2.80;;;23.20;99.90;;;;;;7401240;19;20029;-82
2021/09/16 09:58:03;;;;;;;6.40;2.58;;;23.70;97.90;;;;;;7418824;19;20526;-83
2021/09/16 10:00:37;;;;;;;10.07;2.53;;;23.90;96.90;;;;;;7418921;19;20021;-82
2021/09/16 10:03:08;;;;;;;6.95;3.10;;;23.90;96.00;;;;;;7407167;19;20105;-82
2021/09/16 10:05:39;;;;;;;7.18;2.80;;;23.90;95.50;;;;;;7399977;19;20017;-82
2021/09/16 10:08:14;;;;;;;10.25;4.07;;;23.80;95.30;;;;;;7399682;19;20025;-82
2021/09/16 10:10:48;;;;;;;4.97;2.38;;;23.60;95.60;;;;;;7399186;19;20093;-83
2021/09/16 10:13:21;;;;;;;6.22;2.40;;;23.20;96.10;;;;;;7400097;19;20718;-83
2021/09/16 10:15:52;;;;;;;6.25;2.47;;;22.70;96.70;;;;;;7400185;19;20151;-82
2021/09/16 10:18:22;;;;;;;7.43;2.80;;;22.30;97.30;;;;;;7397098;19;20018;-81
2021/09/16 10:20:52;;;;;;;9.43;2.85;;;22.10;98.50;;;;;;7399363;19;20030;-82
2021/09/16 10:23:24;;;;;;;9.63;2.95;;;22.00;99.60;;;;;;7397730;19;20014;-84
2021/09/16 10:25:57;;;;;;;14.65;5.80;;;21.90;98.90;;;;;;7398433;19;20089;-82
2021/09/16 10:28:41;;;;;;;11.02;3.90;;;22.00;99.10;;;;;;7395338;19;20010;-86
2021/09/16 10:31:24;;;;;;;5.93;3.42;;;22.10;98.90;;;;;;7393594;19;20014;-82
2021/09/16 10:34:02;;;;;;;5.72;3.25;;;22.10;98.50;;;;;;7393033;19;20013;-84
2021/09/16 10:36:32;;;;;;;9.02;3.25;;;22.10;98.90;;;;;;7392145;19;20090;-82
2021/09/16 10:39:02;;;;;;;6.95;3.30;;;22.20;98.80;;;;;;7394390;19;20408;-80
2021/09/16 10:41:34;;;;;;;8.15;3.65;;;22.30;98.80;;;;;;7392523;19;20034;-82
2021/09/16 10:44:24;;;;;;;9.18;3.90;;;22.30;97.70;;;;;;7392579;19;20018;-83
2021/09/16 10:47:00;;;;;;;7.88;4.32;;;22.10;97.30;;;;;;7392089;19;20017;-82
2021/09/16 10:49:34;;;;;;;8.60;3.78;;;21.50;97.80;;;;;;7393780;19;20013;-82
2021/09/16 10:52:19;;;;;;;8.77;3.72;;;21.10;99.10;;;;;;7392849;19;20007;-82
2021/09/16 10:54:50;;;;;;;10.25;3.53;;;20.90;99.90;;;;;;7392514;19;20364;-82
2021/09/16 10:57:37;;;;;;;9.85;2.75;;;20.80;99.90;;;;;;7394104;19;20090;-83
2021/09/16 11:00:19;;;;;;;9.77;3.58;;;20.70;99.90;;;;;;7396698;19;20033;-81
2021/09/16 11:03:08;;;;;;;5.75;2.78;;;20.60;99.90;;;;;;7398182;19;20292;-84
2021/09/16 11:05:53;;;;;;;8.25;2.65;;;20.60;99.90;;;;;;7400899;19;20032;-82
2021/09/16 11:09:01;;;;;;;8.48;3.22;;;20.60;99.90;;;;;;7403749;19;20015;-83
2021/09/16 11:11:54;;;;;;;7.93;3.60;;;20.60;99.90;;;;;;7400498;19;20014;-83
2021/09/16 11:14:29;;;;;;;4.85;2.40;;;20.40;99.90;;;;;;7404138;19;20030;-82
2021/09/16 11:17:01;;;;;;;6.18;2.80;;;20.20;99.90;;;;;;7407245;19;20378;-82
2021/09/16 11:19:48;;;;;;;6.43;2.28;;;20.10;99.90;;;;;;7406072;19;20081;-83
2021/09/16 11:22:26;;;;;;;5.68;2.22;;;20.20;99.90;;;;;;7404746;19;20021;-82
2021/09/16 11:25:06;;;;;;;6.40;2.92;;;20.30;99.90;;;;;;7408235;19;20043;-83
2021/09/16 11:27:57;;;;;;;5.60;2.60;;;20.20;99.90;;;;;;7401981;19;20484;-83
2021/09/16 11:30:37;;;;;;;11.35;3.03;;;19.80;99.90;;;;;;7404686;19;20026;-83
2021/09/16 11:33:18;;;;;;;4.38;2.17;;;19.50;99.90;;;;;;7407808;19;20010;-83
2021/09/16 11:35:56;;;;;;;29.70;4.25;;;19.60;99.90;;;;;;7401395;19;20018;-84
2021/09/16 11:38:34;;;;;;;6.10;2.90;;;19.80;99.90;;;;;;7408339;19;20400;-83
2021/09/16 11:41:14;;;;;;;6.45;2.75;;;20.00;99.90;;;;;;7402803;19;20022;-84
2021/09/16 11:44:09;;;;;;;7.15;3.40;;;20.10;98.70;;;;;;7405620;19;20011;-83
2021/09/16 11:46:48;;;;;;;6.43;3.00;;;20.00;98.10;;;;;;7401642;19;20006;-82
2021/09/16 11:49:26;;;;;;;5.72;2.70;;;20.10;97.30;;;;;;7402184;19;20019;-83
2021/09/16 11:52:05;;;;;;;4.78;2.70;;;20.40;96.80;;;;;;7397791;19;20038;-82
2021/09/16 11:54:43;;;;;;;7.88;3.20;;;20.60;96.20;;;;;;7401829;19;20022;-84
2021/09/16 11:57:23;;;;;;;8.20;2.72;;;20.70;95.50;;;;;;7400440;19;20011;-83
2021/09/16 12:00:25;;;;;;;5.85;2.80;;;20.80;95.20;;;;;;7399951;19;20043;-82
2021/09/16 12:03:04;;;;;;;5.60;3.10;;;20.70;94.90;;;;;;7401391;19;20328;-83
2021/09/16 12:05:48;;;;;;;5.05;2.65;;;21.00;94.30;;;;;;7403246;19;20074;-82
2021/09/16 12:08:29;;;;;;;10.65;2.75;;;21.60;93.20;;;;;;7398895;19;20015;-83
2021/09/16 12:11:12;;;;;;;4.72;2.35;;;22.60;91.60;;;;;;7400307;19;20018;-85
2021/09/16 12:13:56;;;;;;;2.83;1.90;;;22.20;90.20;;;;;;7399328;19;20111;-84
2021/09/16 12:16:39;;;;;;;9.73;2.20;;;22.80;89.50;;;;;;7400837;19;20309;-84
2021/09/16 12:19:18;;;;;;;5.03;2.13;;;22.40;88.70;;;;;;7399119;19;20034;-87
2021/09/16 12:22:01;;;;;;;3.40;2.00;;;22.20;90.10;;;;;;7399070;19;20402;-83
2021/09/16 12:24:42;;;;;;;5.45;2.30;;;23.00;87.80;;;;;;7398714;19;20022;-82
2021/09/16 12:27:30;;;;;;;6.65;2.03;;;24.10;82.80;;;;;;7401259;19;20015;-83
2021/09/16 12:30:40;;;;;;;4.90;2.13;;;25.10;80.10;;;;;;7399428;19;20125;-82
2021/09/16 12:33:36;;;;;;;5.90;2.65;;;25.30;76.90;;;;;;7405291;19;20026;-82
2021/09/16 12:36:21;;;;;;;7.78;1.90;;;24.10;79.10;;;;;;7401636;19;20034;-82
2021/09/16 12:39:09;;;;;;;2.83;1.50;;;23.70;80.70;;;;;;7402231;19;20026;-82
2021/09/16 12:41:55;;;;;;;3.40;1.67;;;23.90;80.20;;;;;;7400246;19;20034;-83
2021/09/16 12:44:37;;;;;;;2.72;1.30;;;24.50;78.00;;;;;;7402577;19;20022;-82
2021/09/16 12:47:17;;;;;;;3.15;1.17;;;25.60;74.70;;;;;;7403795;19;20310;-84
2021/09/16 12:50:09;;;;;;;3.88;1.50;;;24.70;74.60;;;;;;7401447;19;20010;-83
2021/09/16 12:52:50;;;;;;;4.32;1.42;;;25.30;73.40;;;;;;7401051;19;20030;-82
2021/09/16 12:55:28;;;;;;;5.93;1.55;;;26.40;70.20;;;;;;7401093;19;20343;-82
2021/09/16 12:58:08;;;;;;;3.20;1.30;;;27.40;66.50;;;;;;7401244;19;20014;-81
2021/09/16 13:01:03;;;;;;;2.75;1.00;;;28.60;61.60;;;;;;7402716;19;20031;-83
2021/09/16 13:03:42;;;;;;;1.60;1.00;;;27.30;62.60;;;;;;7398107;19;20039;-82
2021/09/16 13:06:23;;;;;;;3.10;1.35;;;27.50;61.80;;;;;;7404789;19;20007;-82